sensor_id;sensor_type;location;lat;lon;timestamp;P1;durP1;ratioP1;P2;durP2;ratioP2
20076;SDS011;12348;42.710;23.378;2023-06-14T00:02:24;12.93;;;7.87;;
20076;SDS011;12348;42.710;23.378;2023-06-14T00:04:50;12.07;;;7.60;;
20076;SDS011;12348;42.710;23.378;2023-06-14T00:07:17;13.00;;;7.40;;
20076;SDS011;12348;42.710;23.378;2023-06-14T00:09:45;15.03;;;8.47;;
20076;SDS011;12348;42.710;23.378;2023-06-14T00:12:12;15.97;;;7.70;;
20076;SDS011;12348;42.710;23.378;2023-06-14T00:14:40;14.33;;;8.23;;
20076;SDS011;12348;42.710;23.378;2023-06-14T00:17:08;15.07;;;7.47;;
20076;SDS011;12348;42.710;23.378;2023-06-14T00:19:34;17.47;;;8.13;;
20076;SDS011;12348;42.710;23.378;2023-06-14T00:22:01;14.57;;;8.40;;
20076;SDS011;12348;42.710;23.378;2023-06-14T00:24:28;10.80;;;7.40;;
20076;SDS011;12348;42.710;23.378;2023-06-14T00:26:55;10.63;;;7.80;;
20076;SDS011;12348;42.710;23.378;2023-06-14T00:29:21;15.23;;;7.53;;
20076;SDS011;12348;42.710;23.378;2023-06-14T00:31:49;11.23;;;7.47;;
20076;SDS011;12348;42.710;23.378;2023-06-14T00:34:17;13.20;;;7.80;;
20076;SDS011;12348;42.710;23.378;2023-06-14T00:36:45;10.93;;;7.83;;
20076;SDS011;12348;42.710;23.378;2023-06-14T00:39:12;10.80;;;7.57;;
20076;SDS011;12348;42.710;23.378;2023-06-14T00:58:54;12.03;;;7.83;;
20076;SDS011;12348;42.710;23.378;2023-06-14T01:01:22;10.97;;;7.47;;
20076;SDS011;12348;42.710;23.378;2023-06-14T01:03:49;13.53;;;8.57;;
20076;SDS011;12348;42.710;23.378;2023-06-14T01:06:18;11.00;;;7.47;;
20076;SDS011;12348;42.710;23.378;2023-06-14T01:08:57;17.10;;;7.63;;
20076;SDS011;12348;42.710;23.378;2023-06-14T01:11:32;13.27;;;8.53;;
20076;SDS011;12348;42.710;23.378;2023-06-14T01:14:07;15.80;;;7.73;;
20076;SDS011;12348;42.710;23.378;2023-06-14T01:16:36;9.43;;;7.07;;
20076;SDS011;12348;42.710;23.378;2023-06-14T01:19:04;18.93;;;8.63;;
20076;SDS011;12348;42.710;23.378;2023-06-14T01:21:32;13.67;;;7.83;;
20076;SDS011;12348;42.710;23.378;2023-06-14T01:27:30;12.10;;;8.23;;
20076;SDS011;12348;42.710;23.378;2023-06-14T01:29:57;14.57;;;8.33;;
20076;SDS011;12348;42.710;23.378;2023-06-14T01:32:30;17.13;;;8.87;;
20076;SDS011;12348;42.710;23.378;2023-06-14T01:38:25;14.53;;;7.50;;
20076;SDS011;12348;42.710;23.378;2023-06-14T01:40:54;11.73;;;8.47;;
20076;SDS011;12348;42.710;23.378;2023-06-14T01:43:24;11.10;;;7.87;;
20076;SDS011;12348;42.710;23.378;2023-06-14T01:45:52;11.23;;;7.80;;
20076;SDS011;12348;42.710;23.378;2023-06-14T01:48:21;14.97;;;8.47;;
20076;SDS011;12348;42.710;23.378;2023-06-14T01:50:48;14.27;;;7.50;;
20076;SDS011;12348;42.710;23.378;2023-06-14T01:53:16;12.00;;;8.00;;
20076;SDS011;12348;42.710;23.378;2023-06-14T01:55:42;14.67;;;8.50;;
20076;SDS011;12348;42.710;23.378;2023-06-14T01:58:13;12.60;;;8.30;;
20076;SDS011;12348;42.710;23.378;2023-06-14T02:00:42;12.27;;;8.20;;
20076;SDS011;12348;42.710;23.378;2023-06-14T02:03:09;10.50;;;8.00;;
20076;SDS011;12348;42.710;23.378;2023-06-14T02:05:36;13.33;;;8.30;;
20076;SDS011;12348;42.710;23.378;2023-06-14T02:08:04;14.43;;;8.37;;
20076;SDS011;12348;42.710;23.378;2023-06-14T02:10:31;10.63;;;7.43;;
20076;SDS011;12348;42.710;23.378;2023-06-14T02:12:57;12.10;;;8.10;;
20076;SDS011;12348;42.710;23.378;2023-06-14T02:15:24;13.27;;;7.90;;
20076;SDS011;12348;42.710;23.378;2023-06-14T02:18:00;13.33;;;9.00;;
20076;SDS011;12348;42.710;23.378;2023-06-14T02:20:28;11.43;;;8.00;;
20076;SDS011;12348;42.710;23.378;2023-06-14T02:22:55;12.73;;;8.67;;
20076;SDS011;12348;42.710;23.378;2023-06-14T02:25:22;11.53;;;8.73;;
20076;SDS011;12348;42.710;23.378;2023-06-14T02:27:48;15.47;;;7.60;;
20076;SDS011;12348;42.710;23.378;2023-06-14T02:30:15;13.40;;;7.60;;
20076;SDS011;12348;42.710;23.378;2023-06-14T02:32:42;13.07;;;8.07;;
20076;SDS011;12348;42.710;23.378;2023-06-14T02:35:10;13.30;;;7.87;;
20076;SDS011;12348;42.710;23.378;2023-06-14T02:37:38;12.83;;;8.20;;
20076;SDS011;12348;42.710;23.378;2023-06-14T02:40:05;12.47;;;7.13;;
20076;SDS011;12348;42.710;23.378;2023-06-14T02:42:34;11.43;;;7.23;;
20076;SDS011;12348;42.710;23.378;2023-06-14T02:45:00;10.63;;;8.00;;
20076;SDS011;12348;42.710;23.378;2023-06-14T02:47:29;12.30;;;7.63;;
20076;SDS011;12348;42.710;23.378;2023-06-14T02:49:55;10.53;;;8.00;;
20076;SDS011;12348;42.710;23.378;2023-06-14T02:52:24;10.80;;;7.17;;
20076;SDS011;12348;42.710;23.378;2023-06-14T02:54:51;12.93;;;8.23;;
20076;SDS011;12348;42.710;23.378;2023-06-14T02:57:19;15.10;;;8.37;;
20076;SDS011;12348;42.710;23.378;2023-06-14T02:59:46;12.40;;;8.33;;
20076;SDS011;12348;42.710;23.378;2023-06-14T03:02:12;10.53;;;8.17;;
20076;SDS011;12348;42.710;23.378;2023-06-14T03:04:39;12.73;;;9.03;;
20076;SDS011;12348;42.710;23.378;2023-06-14T03:07:10;12.00;;;8.10;;
20076;SDS011;12348;42.710;23.378;2023-06-14T03:09:38;16.40;;;8.37;;
20076;SDS011;12348;42.710;23.378;2023-06-14T03:12:06;13.77;;;8.97;;
20076;SDS011;12348;42.710;23.378;2023-06-14T03:14:34;13.67;;;9.30;;
20076;SDS011;12348;42.710;23.378;2023-06-14T03:17:01;15.27;;;9.07;;
20076;SDS011;12348;42.710;23.378;2023-06-14T03:19:29;15.00;;;9.77;;
20076;SDS011;12348;42.710;23.378;2023-06-14T03:21:57;16.00;;;9.53;;
20076;SDS011;12348;42.710;23.378;2023-06-14T03:24:24;15.43;;;9.00;;
20076;SDS011;12348;42.710;23.378;2023-06-14T03:26:53;15.07;;;9.17;;
20076;SDS011;12348;42.710;23.378;2023-06-14T03:29:20;15.70;;;9.90;;
20076;SDS011;12348;42.710;23.378;2023-06-14T03:31:57;15.77;;;10.00;;
20076;SDS011;12348;42.710;23.378;2023-06-14T03:34:24;15.43;;;10.97;;
20076;SDS011;12348;42.710;23.378;2023-06-14T03:36:51;13.27;;;9.20;;
20076;SDS011;12348;42.710;23.378;2023-06-14T03:39:18;17.60;;;10.07;;
20076;SDS011;12348;42.710;23.378;2023-06-14T03:41:45;14.97;;;10.13;;
20076;SDS011;12348;42.710;23.378;2023-06-14T03:44:15;26.97;;;17.20;;
20076;SDS011;12348;42.710;23.378;2023-06-14T03:46:42;15.27;;;10.33;;
20076;SDS011;12348;42.710;23.378;2023-06-14T03:49:10;22.83;;;10.83;;
20076;SDS011;12348;42.710;23.378;2023-06-14T03:51:37;18.73;;;10.93;;
20076;SDS011;12348;42.710;23.378;2023-06-14T03:54:04;13.70;;;9.60;;
20076;SDS011;12348;42.710;23.378;2023-06-14T03:56:31;16.07;;;9.53;;
20076;SDS011;12348;42.710;23.378;2023-06-14T03:58:58;14.00;;;8.63;;
20076;SDS011;12348;42.710;23.378;2023-06-14T04:01:26;15.07;;;8.17;;
20076;SDS011;12348;42.710;23.378;2023-06-14T04:03:54;14.33;;;8.97;;
20076;SDS011;12348;42.710;23.378;2023-06-14T04:06:22;14.20;;;9.13;;
20076;SDS011;12348;42.710;23.378;2023-06-14T04:08:50;11.20;;;7.70;;
20076;SDS011;12348;42.710;23.378;2023-06-14T04:11:17;17.23;;;8.93;;
20076;SDS011;12348;42.710;23.378;2023-06-14T04:13:44;11.70;;;8.50;;
20076;SDS011;12348;42.710;23.378;2023-06-14T04:16:12;13.20;;;9.13;;
20076;SDS011;12348;42.710;23.378;2023-06-14T04:18:40;15.90;;;8.00;;
20076;SDS011;12348;42.710;23.378;2023-06-14T04:21:07;12.97;;;8.40;;
20076;SDS011;12348;42.710;23.378;2023-06-14T04:23:34;11.47;;;7.87;;
20076;SDS011;12348;42.710;23.378;2023-06-14T04:26:01;16.67;;;8.63;;
20076;SDS011;12348;42.710;23.378;2023-06-14T04:28:27;16.23;;;10.23;;
20076;SDS011;12348;42.710;23.378;2023-06-14T04:30:55;13.90;;;8.93;;
20076;SDS011;12348;42.710;23.378;2023-06-14T04:33:21;18.17;;;10.07;;
20076;SDS011;12348;42.710;23.378;2023-06-14T04:35:51;18.53;;;9.37;;
20076;SDS011;12348;42.710;23.378;2023-06-14T04:38:19;13.00;;;8.40;;
20076;SDS011;12348;42.710;23.378;2023-06-14T04:40:50;13.80;;;9.53;;
20076;SDS011;12348;42.710;23.378;2023-06-14T04:43:18;17.63;;;10.70;;
20076;SDS011;12348;42.710;23.378;2023-06-14T04:45:51;16.83;;;11.10;;
20076;SDS011;12348;42.710;23.378;2023-06-14T04:48:19;21.70;;;15.33;;
20076;SDS011;12348;42.710;23.378;2023-06-14T04:50:46;21.97;;;14.90;;
20076;SDS011;12348;42.710;23.378;2023-06-14T04:53:14;16.40;;;11.43;;
20076;SDS011;12348;42.710;23.378;2023-06-14T04:55:41;11.97;;;9.40;;
20076;SDS011;12348;42.710;23.378;2023-06-14T04:58:10;13.17;;;10.30;;
20076;SDS011;12348;42.710;23.378;2023-06-14T05:00:38;19.37;;;13.87;;
20076;SDS011;12348;42.710;23.378;2023-06-14T05:03:06;18.43;;;11.37;;
20076;SDS011;12348;42.710;23.378;2023-06-14T05:05:33;16.87;;;10.77;;
20076;SDS011;12348;42.710;23.378;2023-06-14T05:08:00;14.63;;;10.13;;
20076;SDS011;12348;42.710;23.378;2023-06-14T05:10:28;15.23;;;9.73;;
20076;SDS011;12348;42.710;23.378;2023-06-14T05:12:55;14.17;;;10.33;;
20076;SDS011;12348;42.710;23.378;2023-06-14T05:15:22;16.93;;;9.73;;
20076;SDS011;12348;42.710;23.378;2023-06-14T05:17:50;20.03;;;10.23;;
20076;SDS011;12348;42.710;23.378;2023-06-14T05:20:20;11.20;;;9.30;;
20076;SDS011;12348;42.710;23.378;2023-06-14T05:22:48;14.63;;;9.90;;
20076;SDS011;12348;42.710;23.378;2023-06-14T05:25:17;15.07;;;10.67;;
20076;SDS011;12348;42.710;23.378;2023-06-14T05:27:47;17.03;;;11.40;;
20076;SDS011;12348;42.710;23.378;2023-06-14T05:30:14;17.60;;;11.53;;
20076;SDS011;12348;42.710;23.378;2023-06-14T05:32:41;15.03;;;11.10;;
20076;SDS011;12348;42.710;23.378;2023-06-14T05:35:08;22.93;;;11.63;;
20076;SDS011;12348;42.710;23.378;2023-06-14T05:37:35;17.47;;;11.40;;
20076;SDS011;12348;42.710;23.378;2023-06-14T05:40:02;16.40;;;11.07;;
20076;SDS011;12348;42.710;23.378;2023-06-14T05:42:31;18.83;;;11.10;;
20076;SDS011;12348;42.710;23.378;2023-06-14T05:45:00;16.23;;;11.37;;
20076;SDS011;12348;42.710;23.378;2023-06-14T05:47:26;15.37;;;10.73;;
20076;SDS011;12348;42.710;23.378;2023-06-14T05:49:53;18.97;;;12.03;;
20076;SDS011;12348;42.710;23.378;2023-06-14T05:52:20;17.53;;;12.83;;
20076;SDS011;12348;42.710;23.378;2023-06-14T05:54:47;18.97;;;12.97;;
20076;SDS011;12348;42.710;23.378;2023-06-14T05:57:14;17.37;;;11.77;;
20076;SDS011;12348;42.710;23.378;2023-06-14T05:59:41;15.80;;;12.83;;
20076;SDS011;12348;42.710;23.378;2023-06-14T06:02:09;15.97;;;11.70;;
20076;SDS011;12348;42.710;23.378;2023-06-14T06:04:36;18.50;;;11.77;;
20076;SDS011;12348;42.710;23.378;2023-06-14T06:07:03;21.23;;;12.57;;
20076;SDS011;12348;42.710;23.378;2023-06-14T06:09:30;15.53;;;11.60;;
20076;SDS011;12348;42.710;23.378;2023-06-14T06:11:57;19.70;;;11.90;;
20076;SDS011;12348;42.710;23.378;2023-06-14T06:14:24;16.40;;;11.53;;
20076;SDS011;12348;42.710;23.378;2023-06-14T06:16:51;18.17;;;11.97;;
20076;SDS011;12348;42.710;23.378;2023-06-14T06:19:20;14.27;;;11.23;;
20076;SDS011;12348;42.710;23.378;2023-06-14T06:21:46;16.13;;;11.53;;
20076;SDS011;12348;42.710;23.378;2023-06-14T06:24:13;15.63;;;11.50;;
20076;SDS011;12348;42.710;23.378;2023-06-14T06:26:42;15.37;;;10.77;;
20076;SDS011;12348;42.710;23.378;2023-06-14T06:29:08;17.87;;;13.10;;
20076;SDS011;12348;42.710;23.378;2023-06-14T06:31:35;17.97;;;12.60;;
20076;SDS011;12348;42.710;23.378;2023-06-14T06:34:02;18.20;;;12.50;;
20076;SDS011;12348;42.710;23.378;2023-06-14T06:36:30;19.93;;;13.03;;
20076;SDS011;12348;42.710;23.378;2023-06-14T06:38:57;20.13;;;12.83;;
20076;SDS011;12348;42.710;23.378;2023-06-14T06:41:24;18.57;;;14.13;;
20076;SDS011;12348;42.710;23.378;2023-06-14T06:43:51;22.60;;;14.60;;
20076;SDS011;12348;42.710;23.378;2023-06-14T06:46:18;20.87;;;15.20;;
20076;SDS011;12348;42.710;23.378;2023-06-14T06:48:45;31.50;;;22.17;;
20076;SDS011;12348;42.710;23.378;2023-06-14T06:51:12;75.80;;;47.77;;
20076;SDS011;12348;42.710;23.378;2023-06-14T06:53:42;25.13;;;18.40;;
20076;SDS011;12348;42.710;23.378;2023-06-14T06:56:18;32.80;;;21.33;;
20076;SDS011;12348;42.710;23.378;2023-06-14T06:58:44;22.50;;;15.90;;
20076;SDS011;12348;42.710;23.378;2023-06-14T07:01:11;43.30;;;28.03;;
20076;SDS011;12348;42.710;23.378;2023-06-14T07:03:38;24.93;;;17.50;;
20076;SDS011;12348;42.710;23.378;2023-06-14T07:06:05;23.10;;;14.80;;
20076;SDS011;12348;42.710;23.378;2023-06-14T07:08:31;21.73;;;14.67;;
20076;SDS011;12348;42.710;23.378;2023-06-14T07:10:59;31.80;;;22.10;;
20076;SDS011;12348;42.710;23.378;2023-06-14T07:13:27;28.73;;;17.97;;
20076;SDS011;12348;42.710;23.378;2023-06-14T07:15:54;32.47;;;19.17;;
20076;SDS011;12348;42.710;23.378;2023-06-14T07:18:23;19.10;;;13.83;;
20076;SDS011;12348;42.710;23.378;2023-06-14T07:20:50;17.20;;;13.03;;
20076;SDS011;12348;42.710;23.378;2023-06-14T07:23:17;22.70;;;14.47;;
20076;SDS011;12348;42.710;23.378;2023-06-14T07:25:44;18.60;;;12.97;;
20076;SDS011;12348;42.710;23.378;2023-06-14T07:28:12;19.77;;;14.67;;
20076;SDS011;12348;42.710;23.378;2023-06-14T07:30:39;17.50;;;13.73;;
20076;SDS011;12348;42.710;23.378;2023-06-14T07:33:05;20.37;;;12.70;;
20076;SDS011;12348;42.710;23.378;2023-06-14T07:35:33;13.37;;;10.63;;
20076;SDS011;12348;42.710;23.378;2023-06-14T07:38:00;13.57;;;10.67;;
20076;SDS011;12348;42.710;23.378;2023-06-14T07:40:27;13.63;;;9.68;;
20076;SDS011;12348;42.710;23.378;2023-06-14T07:42:53;10.57;;;8.98;;
20076;SDS011;12348;42.710;23.378;2023-06-14T07:45:22;15.43;;;10.18;;
20076;SDS011;12348;42.710;23.378;2023-06-14T07:47:49;13.45;;;10.30;;
20076;SDS011;12348;42.710;23.378;2023-06-14T07:50:16;13.57;;;11.13;;
20076;SDS011;12348;42.710;23.378;2023-06-14T07:52:43;13.87;;;10.50;;
20076;SDS011;12348;42.710;23.378;2023-06-14T07:55:10;13.57;;;10.00;;
20076;SDS011;12348;42.710;23.378;2023-06-14T07:57:38;14.93;;;11.07;;
20076;SDS011;12348;42.710;23.378;2023-06-14T08:00:05;17.00;;;10.40;;
20076;SDS011;12348;42.710;23.378;2023-06-14T08:02:34;10.60;;;8.98;;
20076;SDS011;12348;42.710;23.378;2023-06-14T08:05:01;12.98;;;10.23;;
20076;SDS011;12348;42.710;23.378;2023-06-14T08:07:28;11.63;;;8.38;;
20076;SDS011;12348;42.710;23.378;2023-06-14T08:09:55;11.50;;;9.07;;
20076;SDS011;12348;42.710;23.378;2023-06-14T08:12:21;14.43;;;9.77;;
20076;SDS011;12348;42.710;23.378;2023-06-14T08:14:48;10.18;;;8.30;;
20076;SDS011;12348;42.710;23.378;2023-06-14T08:17:15;12.73;;;9.18;;
20076;SDS011;12348;42.710;23.378;2023-06-14T08:19:43;14.30;;;8.50;;
20076;SDS011;12348;42.710;23.378;2023-06-14T08:22:10;10.27;;;8.10;;
20076;SDS011;12348;42.710;23.378;2023-06-14T08:24:37;13.73;;;9.40;;
20076;SDS011;12348;42.710;23.378;2023-06-14T08:27:05;11.17;;;8.60;;
20076;SDS011;12348;42.710;23.378;2023-06-14T08:29:32;12.77;;;9.33;;
20076;SDS011;12348;42.710;23.378;2023-06-14T08:31:59;12.63;;;9.30;;
20076;SDS011;12348;42.710;23.378;2023-06-14T08:34:27;15.23;;;12.10;;
20076;SDS011;12348;42.710;23.378;2023-06-14T08:36:55;11.47;;;9.13;;
20076;SDS011;12348;42.710;23.378;2023-06-14T08:39:21;13.77;;;9.10;;
20076;SDS011;12348;42.710;23.378;2023-06-14T08:41:48;12.35;;;8.80;;
20076;SDS011;12348;42.710;23.378;2023-06-14T08:44:16;8.20;;;7.30;;
20076;SDS011;12348;42.710;23.378;2023-06-14T08:46:43;10.80;;;8.80;;
20076;SDS011;12348;42.710;23.378;2023-06-14T08:49:11;11.25;;;8.73;;
20076;SDS011;12348;42.710;23.378;2023-06-14T08:51:39;9.75;;;8.23;;
20076;SDS011;12348;42.710;23.378;2023-06-14T08:54:08;8.48;;;7.57;;
20076;SDS011;12348;42.710;23.378;2023-06-14T08:56:36;10.00;;;8.23;;
20076;SDS011;12348;42.710;23.378;2023-06-14T08:59:06;10.32;;;7.50;;
20076;SDS011;12348;42.710;23.378;2023-06-14T09:01:34;11.57;;;7.72;;
20076;SDS011;12348;42.710;23.378;2023-06-14T09:04:03;8.98;;;7.40;;
20076;SDS011;12348;42.710;23.378;2023-06-14T09:06:31;14.40;;;7.78;;
20076;SDS011;12348;42.710;23.378;2023-06-14T09:08:58;9.52;;;6.95;;
20076;SDS011;12348;42.710;23.378;2023-06-14T09:11:26;7.65;;;6.07;;
20076;SDS011;12348;42.710;23.378;2023-06-14T09:13:53;6.18;;;5.47;;
20076;SDS011;12348;42.710;23.378;2023-06-14T09:16:20;8.32;;;7.40;;
20076;SDS011;12348;42.710;23.378;2023-06-14T09:18:47;8.35;;;6.80;;
20076;SDS011;12348;42.710;23.378;2023-06-14T09:21:15;8.32;;;6.72;;
20076;SDS011;12348;42.710;23.378;2023-06-14T09:23:42;7.28;;;5.78;;
20076;SDS011;12348;42.710;23.378;2023-06-14T09:26:11;9.23;;;6.83;;
20076;SDS011;12348;42.710;23.378;2023-06-14T09:28:42;8.50;;;7.63;;
20076;SDS011;12348;42.710;23.378;2023-06-14T09:31:10;10.33;;;8.23;;
20076;SDS011;12348;42.710;23.378;2023-06-14T09:33:37;11.33;;;7.27;;
20076;SDS011;12348;42.710;23.378;2023-06-14T09:36:04;7.97;;;7.17;;
20076;SDS011;12348;42.710;23.378;2023-06-14T09:38:33;15.13;;;11.53;;
20076;SDS011;12348;42.710;23.378;2023-06-14T09:41:00;12.97;;;10.00;;
20076;SDS011;12348;42.710;23.378;2023-06-14T09:43:30;10.03;;;8.47;;
20076;SDS011;12348;42.710;23.378;2023-06-14T09:46:00;9.37;;;6.90;;
20076;SDS011;12348;42.710;23.378;2023-06-14T09:48:27;8.85;;;5.95;;
20076;SDS011;12348;42.710;23.378;2023-06-14T09:50:54;8.13;;;7.07;;
20076;SDS011;12348;42.710;23.378;2023-06-14T09:53:24;9.70;;;7.85;;
20076;SDS011;12348;42.710;23.378;2023-06-14T09:55:52;8.77;;;7.88;;
20076;SDS011;12348;42.710;23.378;2023-06-14T09:58:23;11.07;;;8.95;;
20076;SDS011;12348;42.710;23.378;2023-06-14T10:00:53;16.42;;;8.13;;
20076;SDS011;12348;42.710;23.378;2023-06-14T10:03:24;7.38;;;6.47;;
20076;SDS011;12348;42.710;23.378;2023-06-14T10:05:54;10.27;;;7.10;;
20076;SDS011;12348;42.710;23.378;2023-06-14T10:08:26;7.80;;;6.38;;
20076;SDS011;12348;42.710;23.378;2023-06-14T10:10:55;7.03;;;6.13;;
20076;SDS011;12348;42.710;23.378;2023-06-14T10:13:22;7.95;;;6.63;;
20076;SDS011;12348;42.710;23.378;2023-06-14T10:15:52;8.43;;;7.50;;
20076;SDS011;12348;42.710;23.378;2023-06-14T10:18:27;14.17;;;9.17;;
20076;SDS011;12348;42.710;23.378;2023-06-14T10:21:02;10.20;;;7.70;;
20076;SDS011;12348;42.710;23.378;2023-06-14T10:23:37;11.20;;;9.70;;
20076;SDS011;12348;42.710;23.378;2023-06-14T10:26:07;14.17;;;7.20;;
20076;SDS011;12348;42.710;23.378;2023-06-14T10:28:36;8.40;;;6.27;;
20076;SDS011;12348;42.710;23.378;2023-06-14T10:31:07;9.03;;;6.87;;
20076;SDS011;12348;42.710;23.378;2023-06-14T10:33:37;9.20;;;6.97;;
20076;SDS011;12348;42.710;23.378;2023-06-14T10:36:10;9.30;;;6.87;;
20076;SDS011;12348;42.710;23.378;2023-06-14T10:38:59;10.13;;;8.40;;
20076;SDS011;12348;42.710;23.378;2023-06-14T10:41:28;9.10;;;6.47;;
20076;SDS011;12348;42.710;23.378;2023-06-14T10:46:59;8.27;;;6.30;;
20076;SDS011;12348;42.710;23.378;2023-06-14T10:49:38;7.80;;;6.70;;
20076;SDS011;12348;42.710;23.378;2023-06-14T10:52:07;11.43;;;7.10;;
20076;SDS011;12348;42.710;23.378;2023-06-14T10:55:04;10.03;;;8.23;;
20076;SDS011;12348;42.710;23.378;2023-06-14T10:57:34;10.33;;;6.90;;
20076;SDS011;12348;42.710;23.378;2023-06-14T11:00:02;9.70;;;7.77;;
20076;SDS011;12348;42.710;23.378;2023-06-14T11:02:46;8.57;;;7.47;;
20076;SDS011;12348;42.710;23.378;2023-06-14T11:05:29;15.93;;;7.43;;
20076;SDS011;12348;42.710;23.378;2023-06-14T11:08:22;14.50;;;7.63;;
20076;SDS011;12348;42.710;23.378;2023-06-14T11:11:05;11.73;;;6.83;;
20076;SDS011;12348;42.710;23.378;2023-06-14T11:13:33;9.53;;;7.47;;
20076;SDS011;12348;42.710;23.378;2023-06-14T11:16:03;10.00;;;6.73;;
20076;SDS011;12348;42.710;23.378;2023-06-14T11:18:36;8.37;;;6.67;;
20076;SDS011;12348;42.710;23.378;2023-06-14T11:21:05;9.20;;;7.10;;
20076;SDS011;12348;42.710;23.378;2023-06-14T11:23:32;8.03;;;7.17;;
20076;SDS011;12348;42.710;23.378;2023-06-14T11:25:58;7.73;;;6.73;;
20076;SDS011;12348;42.710;23.378;2023-06-14T11:28:34;10.67;;;6.43;;
20076;SDS011;12348;42.710;23.378;2023-06-14T11:31:03;11.73;;;7.60;;
20076;SDS011;12348;42.710;23.378;2023-06-14T11:33:30;9.87;;;7.33;;
20076;SDS011;12348;42.710;23.378;2023-06-14T11:35:57;15.53;;;8.87;;
20076;SDS011;12348;42.710;23.378;2023-06-14T11:38:26;11.10;;;8.37;;
20076;SDS011;12348;42.710;23.378;2023-06-14T11:40:52;24.23;;;16.70;;
20076;SDS011;12348;42.710;23.378;2023-06-14T11:43:19;11.83;;;9.23;;
20076;SDS011;12348;42.710;23.378;2023-06-14T11:45:47;8.97;;;7.10;;
20076;SDS011;12348;42.710;23.378;2023-06-14T11:48:15;8.57;;;6.43;;
20076;SDS011;12348;42.710;23.378;2023-06-14T11:50:42;7.60;;;6.60;;
20076;SDS011;12348;42.710;23.378;2023-06-14T11:53:08;8.97;;;7.07;;
20076;SDS011;12348;42.710;23.378;2023-06-14T11:55:37;11.83;;;8.47;;
20076;SDS011;12348;42.710;23.378;2023-06-14T11:58:06;10.17;;;6.90;;
20076;SDS011;12348;42.710;23.378;2023-06-14T12:00:35;8.70;;;6.97;;
20076;SDS011;12348;42.710;23.378;2023-06-14T12:03:02;9.67;;;6.70;;
20076;SDS011;12348;42.710;23.378;2023-06-14T12:05:29;7.33;;;6.47;;
20076;SDS011;12348;42.710;23.378;2023-06-14T12:07:58;9.30;;;6.80;;
20076;SDS011;12348;42.710;23.378;2023-06-14T12:10:26;8.47;;;6.87;;
20076;SDS011;12348;42.710;23.378;2023-06-14T12:12:58;8.50;;;7.43;;
20076;SDS011;12348;42.710;23.378;2023-06-14T12:15:27;8.00;;;6.20;;
20076;SDS011;12348;42.710;23.378;2023-06-14T12:17:54;8.80;;;6.70;;
20076;SDS011;12348;42.710;23.378;2023-06-14T12:20:21;8.27;;;6.70;;
20076;SDS011;12348;42.710;23.378;2023-06-14T12:22:52;8.37;;;6.10;;
20076;SDS011;12348;42.710;23.378;2023-06-14T12:25:29;9.33;;;6.40;;
20076;SDS011;12348;42.710;23.378;2023-06-14T12:27:58;10.37;;;6.23;;
20076;SDS011;12348;42.710;23.378;2023-06-14T12:30:29;7.77;;;6.20;;
20076;SDS011;12348;42.710;23.378;2023-06-14T12:32:56;9.27;;;5.97;;
20076;SDS011;12348;42.710;23.378;2023-06-14T12:35:23;7.03;;;6.00;;
20076;SDS011;12348;42.710;23.378;2023-06-14T12:37:50;8.47;;;6.63;;
20076;SDS011;12348;42.710;23.378;2023-06-14T12:40:16;14.13;;;10.90;;
20076;SDS011;12348;42.710;23.378;2023-06-14T12:42:44;8.60;;;5.10;;
20076;SDS011;12348;42.710;23.378;2023-06-14T12:45:13;13.83;;;8.97;;
20076;SDS011;12348;42.710;23.378;2023-06-14T12:47:40;9.67;;;5.70;;
20076;SDS011;12348;42.710;23.378;2023-06-14T12:50:07;7.87;;;6.30;;
20076;SDS011;12348;42.710;23.378;2023-06-14T12:52:34;6.47;;;5.20;;
20076;SDS011;12348;42.710;23.378;2023-06-14T12:55:01;8.30;;;6.10;;
20076;SDS011;12348;42.710;23.378;2023-06-14T12:57:29;9.00;;;6.43;;
20076;SDS011;12348;42.710;23.378;2023-06-14T12:59:56;7.40;;;5.80;;
20076;SDS011;12348;42.710;23.378;2023-06-14T13:02:24;5.77;;;5.17;;
20076;SDS011;12348;42.710;23.378;2023-06-14T13:04:51;8.97;;;5.97;;
20076;SDS011;12348;42.710;23.378;2023-06-14T13:07:17;9.53;;;5.10;;
20076;SDS011;12348;42.710;23.378;2023-06-14T13:09:44;9.57;;;4.80;;
20076;SDS011;12348;42.710;23.378;2023-06-14T13:12:11;6.87;;;5.03;;
20076;SDS011;12348;42.710;23.378;2023-06-14T13:14:38;4.33;;;3.93;;
20076;SDS011;12348;42.710;23.378;2023-06-14T13:17:07;8.47;;;4.63;;
20076;SDS011;12348;42.710;23.378;2023-06-14T13:19:36;5.47;;;3.87;;
20076;SDS011;12348;42.710;23.378;2023-06-14T13:22:03;5.70;;;5.10;;
20076;SDS011;12348;42.710;23.378;2023-06-14T13:24:30;8.17;;;6.17;;
20076;SDS011;12348;42.710;23.378;2023-06-14T13:26:57;9.47;;;6.63;;
20076;SDS011;12348;42.710;23.378;2023-06-14T13:29:24;12.90;;;7.23;;
20076;SDS011;12348;42.710;23.378;2023-06-14T13:31:51;8.20;;;6.57;;
20076;SDS011;12348;42.710;23.378;2023-06-14T13:34:18;11.97;;;6.77;;
20076;SDS011;12348;42.710;23.378;2023-06-14T13:36:46;13.10;;;7.13;;
20076;SDS011;12348;42.710;23.378;2023-06-14T13:39:14;9.53;;;7.00;;
20076;SDS011;12348;42.710;23.378;2023-06-14T13:41:40;13.73;;;7.23;;
20076;SDS011;12348;42.710;23.378;2023-06-14T13:44:07;10.77;;;6.53;;
20076;SDS011;12348;42.710;23.378;2023-06-14T13:46:36;7.83;;;6.17;;
20076;SDS011;12348;42.710;23.378;2023-06-14T13:49:03;11.60;;;7.73;;
20076;SDS011;12348;42.710;23.378;2023-06-14T13:51:30;10.23;;;6.67;;
20076;SDS011;12348;42.710;23.378;2023-06-14T13:53:58;13.80;;;7.97;;
20076;SDS011;12348;42.710;23.378;2023-06-14T13:56:26;8.23;;;5.87;;
20076;SDS011;12348;42.710;23.378;2023-06-14T13:58:53;11.90;;;7.20;;
20076;SDS011;12348;42.710;23.378;2023-06-14T14:01:19;11.20;;;7.83;;
20076;SDS011;12348;42.710;23.378;2023-06-14T14:03:46;8.77;;;6.47;;
20076;SDS011;12348;42.710;23.378;2023-06-14T14:06:14;11.90;;;7.17;;
20076;SDS011;12348;42.710;23.378;2023-06-14T14:08:41;9.93;;;7.60;;
20076;SDS011;12348;42.710;23.378;2023-06-14T14:11:12;10.77;;;6.90;;
20076;SDS011;12348;42.710;23.378;2023-06-14T14:13:40;9.90;;;6.17;;
20076;SDS011;12348;42.710;23.378;2023-06-14T14:16:07;10.77;;;7.07;;
20076;SDS011;12348;42.710;23.378;2023-06-14T14:18:35;9.17;;;6.90;;
20076;SDS011;12348;42.710;23.378;2023-06-14T14:21:02;7.47;;;4.73;;
20076;SDS011;12348;42.710;23.378;2023-06-14T14:23:29;11.63;;;7.20;;
20076;SDS011;12348;42.710;23.378;2023-06-14T14:25:56;7.57;;;5.87;;
20076;SDS011;12348;42.710;23.378;2023-06-14T14:28:24;8.53;;;6.40;;
20076;SDS011;12348;42.710;23.378;2023-06-14T14:30:51;6.30;;;5.37;;
20076;SDS011;12348;42.710;23.378;2023-06-14T14:33:18;11.70;;;7.70;;
20076;SDS011;12348;42.710;23.378;2023-06-14T14:35:45;8.70;;;6.37;;
20076;SDS011;12348;42.710;23.378;2023-06-14T14:38:12;12.00;;;8.00;;
20076;SDS011;12348;42.710;23.378;2023-06-14T14:40:39;9.53;;;6.57;;
20076;SDS011;12348;42.710;23.378;2023-06-14T14:43:06;7.67;;;4.30;;
20076;SDS011;12348;42.710;23.378;2023-06-14T14:45:34;5.33;;;3.97;;
20076;SDS011;12348;42.710;23.378;2023-06-14T14:48:03;5.73;;;4.13;;
20076;SDS011;12348;42.710;23.378;2023-06-14T14:50:30;6.63;;;4.00;;
20076;SDS011;12348;42.710;23.378;2023-06-14T14:52:56;4.93;;;3.47;;
20076;SDS011;12348;42.710;23.378;2023-06-14T14:55:23;6.20;;;3.80;;